TO03 weather

Aviosuperficie Moncucco
Vische (TO), Piedmont, Italy

Public forecast

Using degrees Celsius for public forecast. Weather courtesy of forecast.io.

METAR (pilot weather report)

Closest report is Turin Airport, 14.3 nm (26.5 km) SW. Retrieved 2019/05/27 00:20 UTC (10 minutes ago):

LIMF 270020Z 08005KT 9999 BKN075 15/13 Q1012

TAF (pilot weather forecast)

Forecast is more than 12 hours old.

Closest forecast is Turin Airport, 14.3 nm (26.5 km) SW. Retrieved 2019/05/26 00:25 UTC (1 day ago):

TAF LIMF 262300Z 2700/2724 VRB05KT 9999 SCT050 BKN090 TEMPO 2713/2720 RA